createdAt,value
2017-07-20T00:00:58.168Z,26.15
2017-07-20T00:03:25.724Z,26.13
2017-07-20T00:05:53.312Z,26.09
2017-07-20T00:08:20.887Z,26.09
2017-07-20T00:10:48.478Z,26.08
2017-07-20T00:13:16.052Z,26.09
2017-07-20T00:15:43.652Z,26.08
2017-07-20T00:18:11.214Z,26.07
2017-07-20T00:20:38.878Z,26.07
2017-07-20T00:23:06.551Z,25.99
2017-07-20T00:25:34.159Z,25.99
2017-07-20T00:28:01.716Z,25.97
2017-07-20T00:30:29.324Z,25.94
2017-07-20T00:32:56.879Z,25.93
2017-07-20T00:35:24.571Z,25.90
2017-07-20T00:37:52.150Z,25.90
2017-07-20T00:40:19.731Z,25.89
2017-07-20T00:42:47.292Z,25.87
2017-07-20T00:45:14.894Z,25.89
2017-07-20T00:47:42.446Z,25.87
2017-07-20T00:50:10.004Z,25.86
2017-07-20T00:52:37.590Z,25.87
2017-07-20T00:55:05.145Z,25.85
2017-07-20T00:57:32.755Z,25.80
2017-07-20T01:00:00.322Z,25.80
2017-07-20T01:02:27.908Z,25.80
2017-07-20T01:04:55.462Z,25.80
2017-07-20T01:07:23.035Z,25.78
2017-07-20T01:09:50.591Z,25.78
2017-07-20T01:12:18.193Z,25.77
2017-07-20T01:14:45.742Z,25.79
2017-07-20T01:17:13.326Z,25.80
2017-07-20T01:19:40.883Z,25.80
2017-07-20T01:22:08.467Z,25.81
2017-07-20T01:24:36.017Z,25.81
2017-07-20T01:27:03.664Z,25.78
2017-07-20T01:29:31.239Z,25.76
2017-07-20T01:31:58.834Z,25.74
2017-07-20T01:34:26.378Z,25.73
2017-07-20T01:36:53.934Z,25.72
2017-07-20T01:39:21.514Z,25.72
2017-07-20T01:41:49.120Z,25.73
2017-07-20T01:44:16.710Z,25.74
2017-07-20T01:46:44.262Z,25.77
2017-07-20T01:49:11.852Z,25.80
2017-07-20T01:51:39.406Z,25.82
2017-07-20T01:54:07.018Z,25.85
2017-07-20T01:56:34.633Z,25.88
2017-07-20T01:59:02.218Z,25.88
2017-07-20T02:01:29.779Z,25.90
2017-07-20T02:03:57.562Z,25.92
2017-07-20T02:06:25.114Z,25.92
2017-07-20T02:08:52.705Z,25.88
2017-07-20T02:11:20.266Z,25.86
2017-07-20T02:13:47.858Z,25.84
2017-07-20T02:16:15.413Z,25.86
2017-07-20T02:18:42.993Z,25.83
2017-07-20T02:21:10.688Z,25.84
2017-07-20T02:23:38.251Z,25.80
2017-07-20T02:26:05.909Z,25.79
2017-07-20T02:28:33.457Z,25.75
2017-07-20T02:31:01.046Z,25.72
2017-07-20T02:33:28.600Z,25.74
2017-07-20T02:35:56.195Z,25.73
2017-07-20T02:38:23.752Z,25.70
2017-07-20T02:40:51.300Z,25.66
2017-07-20T02:43:18.892Z,25.66
2017-07-20T02:45:46.433Z,25.65
2017-07-20T02:48:13.943Z,25.66
2017-07-20T02:50:41.489Z,25.65
2017-07-20T02:53:09.008Z,25.68
2017-07-20T02:55:36.583Z,25.68
2017-07-20T02:58:04.096Z,25.67
2017-07-20T03:00:31.643Z,25.68
2017-07-20T03:02:59.153Z,25.70
2017-07-20T03:05:26.697Z,25.73
2017-07-20T03:07:54.229Z,25.73
2017-07-20T03:10:21.743Z,25.72
2017-07-20T03:12:49.299Z,25.74
2017-07-20T03:15:16.810Z,25.75
2017-07-20T03:17:44.352Z,25.73
2017-07-20T03:20:11.863Z,25.75
2017-07-20T03:22:46.290Z,25.74
2017-07-20T03:25:13.803Z,25.74
2017-07-20T03:27:41.350Z,25.74
2017-07-20T03:30:08.975Z,25.72
2017-07-20T03:32:36.540Z,25.71
2017-07-20T03:35:04.052Z,25.71
2017-07-20T03:37:31.593Z,25.71
2017-07-20T03:39:59.125Z,25.69
2017-07-20T03:42:26.712Z,25.68
2017-07-20T03:44:54.232Z,25.66
2017-07-20T03:47:21.777Z,25.64
2017-07-20T03:49:49.291Z,25.64
2017-07-20T03:52:16.847Z,25.64
2017-07-20T03:54:44.364Z,25.64
2017-07-20T03:57:11.910Z,25.64
2017-07-20T03:59:39.426Z,25.65
2017-07-20T04:02:06.982Z,25.67
2017-07-20T04:04:34.542Z,25.67
2017-07-20T04:07:02.072Z,25.63
2017-07-20T04:09:29.622Z,25.59
2017-07-20T04:11:57.141Z,25.59
2017-07-20T04:14:24.695Z,25.57
2017-07-20T04:16:52.211Z,25.56
2017-07-20T04:19:19.759Z,25.58
2017-07-20T04:21:47.288Z,25.58
2017-07-20T04:24:14.842Z,25.54
2017-07-20T04:26:42.355Z,25.51
2017-07-20T04:29:09.938Z,25.47
2017-07-20T04:31:37.455Z,25.50
2017-07-20T04:34:05.000Z,25.48
2017-07-20T04:36:32.522Z,25.50
2017-07-20T04:39:00.177Z,25.46
2017-07-20T04:41:27.692Z,25.48
2017-07-20T04:43:55.237Z,25.49
2017-07-20T04:46:22.746Z,25.49
2017-07-20T04:48:50.252Z,25.51
2017-07-20T04:51:17.794Z,25.50
2017-07-20T04:53:45.319Z,25.54
2017-07-20T04:56:12.879Z,25.57
2017-07-20T04:58:40.452Z,25.63
2017-07-20T05:01:07.996Z,25.68
2017-07-20T05:03:35.506Z,25.74
2017-07-20T05:06:03.068Z,25.79
2017-07-20T05:08:30.583Z,25.83
2017-07-20T05:10:58.131Z,25.85
2017-07-20T05:13:25.650Z,25.87
2017-07-20T05:15:53.196Z,25.89
2017-07-20T05:18:20.708Z,25.92
2017-07-20T05:20:48.256Z,25.93
2017-07-20T05:23:15.768Z,25.95
2017-07-20T05:25:43.311Z,25.97
2017-07-20T05:28:10.828Z,25.98
2017-07-20T05:30:38.367Z,26.00
2017-07-20T05:33:05.909Z,26.01
2017-07-20T05:35:33.423Z,26.02
2017-07-20T05:38:00.962Z,26.04
2017-07-20T05:40:28.470Z,26.05
2017-07-20T05:42:56.010Z,26.07
2017-07-20T05:45:23.525Z,26.08
2017-07-20T05:47:51.069Z,26.09
2017-07-20T05:50:18.573Z,26.11
2017-07-20T05:52:46.153Z,26.11
2017-07-20T05:55:13.666Z,26.12
2017-07-20T05:57:41.206Z,26.13
2017-07-20T06:00:08.730Z,26.14
2017-07-20T06:02:36.279Z,26.14
2017-07-20T06:05:03.792Z,26.15
2017-07-20T06:07:31.338Z,26.15
2017-07-20T06:09:58.970Z,26.16
2017-07-20T06:12:26.527Z,26.16
2017-07-20T06:14:54.038Z,26.16
2017-07-20T06:17:21.576Z,26.17
2017-07-20T06:19:49.085Z,26.17
2017-07-20T06:22:16.640Z,26.19
2017-07-20T06:24:44.153Z,26.20
2017-07-20T06:27:11.655Z,26.20
2017-07-20T06:29:39.197Z,26.20
2017-07-20T06:32:06.713Z,26.20
2017-07-20T06:34:34.272Z,26.22
2017-07-20T06:37:01.778Z,26.23
2017-07-20T06:39:29.322Z,26.24
2017-07-20T06:41:56.838Z,26.25
2017-07-20T06:44:24.379Z,26.24
2017-07-20T06:46:51.887Z,26.26
2017-07-20T06:49:19.433Z,26.26
2017-07-20T06:51:46.942Z,26.26
2017-07-20T06:54:14.490Z,26.27
2017-07-20T06:56:42.005Z,26.27
2017-07-20T06:59:09.544Z,26.28
2017-07-20T07:01:37.047Z,26.28
2017-07-20T07:04:04.592Z,26.29
2017-07-20T07:06:32.108Z,26.29
2017-07-20T07:08:59.644Z,26.29
2017-07-20T07:11:27.164Z,26.30
2017-07-20T07:13:54.681Z,26.30
2017-07-20T07:16:22.231Z,26.30
2017-07-20T07:18:49.746Z,26.31
2017-07-20T07:21:17.298Z,26.32
2017-07-20T07:23:44.822Z,26.32
2017-07-20T07:26:12.375Z,26.33
2017-07-20T07:28:39.889Z,26.33
2017-07-20T07:31:07.433Z,26.33
2017-07-20T07:33:34.953Z,26.33
2017-07-20T07:36:02.509Z,26.33
2017-07-20T07:38:30.034Z,26.33
2017-07-20T07:40:57.575Z,26.33
2017-07-20T07:43:25.096Z,26.33
2017-07-20T07:45:52.635Z,26.34
2017-07-20T07:48:20.147Z,26.35
2017-07-20T07:50:47.693Z,26.35
2017-07-20T07:53:15.210Z,26.35
2017-07-20T07:55:42.766Z,26.35
2017-07-20T07:58:10.284Z,26.36
2017-07-20T08:00:37.832Z,26.37
2017-07-20T08:03:05.345Z,26.37
2017-07-20T08:05:32.863Z,26.38
2017-07-20T08:08:00.406Z,26.39
2017-07-20T08:10:27.921Z,26.39
2017-07-20T08:12:55.472Z,26.39
2017-07-20T08:15:22.994Z,26.41
2017-07-20T08:17:50.541Z,26.41
2017-07-20T08:20:18.057Z,26.41
2017-07-20T08:22:45.610Z,26.41
2017-07-20T08:25:13.137Z,26.41
2017-07-20T08:27:40.691Z,26.42
2017-07-20T08:30:08.208Z,26.42
2017-07-20T08:32:35.757Z,26.43
2017-07-20T08:35:03.278Z,26.43
2017-07-20T08:37:30.829Z,26.43
2017-07-20T08:39:58.349Z,26.45
2017-07-20T08:42:25.897Z,26.45
2017-07-20T08:44:53.410Z,26.45
2017-07-20T08:47:20.949Z,26.45
2017-07-20T08:49:48.464Z,26.47
2017-07-20T08:52:16.026Z,26.47
2017-07-20T08:54:43.545Z,26.47
2017-07-20T08:57:11.063Z,26.48
2017-07-20T08:59:38.612Z,26.47
2017-07-20T09:02:06.124Z,26.48
2017-07-20T09:04:33.669Z,26.48
2017-07-20T09:07:01.182Z,26.48
2017-07-20T09:09:28.732Z,26.49
2017-07-20T09:11:56.261Z,26.50
2017-07-20T09:14:23.813Z,26.50
2017-07-20T09:16:51.328Z,26.50
2017-07-20T09:19:19.735Z,26.50
2017-07-20T09:21:47.252Z,26.50
2017-07-20T09:24:14.797Z,26.51
2017-07-20T09:26:42.323Z,26.51
2017-07-20T09:29:09.868Z,26.51
2017-07-20T09:31:37.389Z,26.52
2017-07-20T09:34:04.931Z,26.51
2017-07-20T09:36:32.455Z,26.51
2017-07-20T09:39:00.016Z,26.51
2017-07-20T09:41:27.536Z,26.51
2017-07-20T09:43:55.083Z,26.51
2017-07-20T09:46:22.593Z,26.50
2017-07-20T09:48:50.115Z,26.50
2017-07-20T09:51:17.660Z,26.51
2017-07-20T09:53:45.173Z,26.50
2017-07-20T09:56:12.727Z,26.50
2017-07-20T09:58:40.247Z,26.50
2017-07-20T10:01:07.805Z,26.50
2017-07-20T10:03:35.322Z,26.51
2017-07-20T10:06:02.882Z,26.50
2017-07-20T10:08:30.398Z,26.50
2017-07-20T10:10:57.941Z,26.50
2017-07-20T10:13:25.451Z,26.50
2017-07-20T10:15:53.010Z,26.49
2017-07-20T10:18:20.525Z,26.50
2017-07-20T10:20:48.087Z,26.49
2017-07-20T10:23:15.600Z,26.50
2017-07-20T10:25:43.147Z,26.50
2017-07-20T10:28:10.660Z,26.50
2017-07-20T10:30:38.218Z,26.50
2017-07-20T10:33:05.724Z,26.49
2017-07-20T10:35:33.269Z,26.50
2017-07-20T10:38:00.787Z,26.50
2017-07-20T10:40:28.298Z,26.50
2017-07-20T10:42:55.842Z,26.50
2017-07-20T10:45:23.366Z,26.50
2017-07-20T10:47:50.920Z,26.51
2017-07-20T10:50:18.433Z,26.50
2017-07-20T10:52:45.973Z,26.50
2017-07-20T10:55:13.495Z,26.50
2017-07-20T10:57:41.042Z,26.50
2017-07-20T11:00:08.554Z,26.49
2017-07-20T11:02:36.135Z,26.50
2017-07-20T11:05:03.657Z,26.50
2017-07-20T11:07:31.207Z,26.50
2017-07-20T11:09:58.724Z,26.50
2017-07-20T11:12:26.269Z,26.50
2017-07-20T11:14:53.790Z,26.50
2017-07-20T11:17:21.342Z,26.50
2017-07-20T11:19:48.857Z,26.50
2017-07-20T11:22:16.403Z,26.50
2017-07-20T11:24:43.935Z,26.50
2017-07-20T11:27:11.513Z,26.50
2017-07-20T11:29:39.028Z,26.50
2017-07-20T11:32:06.570Z,26.49
2017-07-20T11:34:34.117Z,26.50
2017-07-20T11:37:01.633Z,26.50
2017-07-20T11:39:29.173Z,26.50
2017-07-20T11:41:56.692Z,26.51
2017-07-20T11:44:24.243Z,26.51
2017-07-20T11:46:51.760Z,26.51
2017-07-20T11:49:19.308Z,26.51
2017-07-20T11:51:46.822Z,26.52
2017-07-20T11:54:14.390Z,26.51
2017-07-20T11:56:41.909Z,26.51
2017-07-20T11:59:09.454Z,26.52
2017-07-20T12:01:36.977Z,26.52
2017-07-20T12:04:04.532Z,26.51
2017-07-20T12:06:32.041Z,26.51
2017-07-20T12:08:59.584Z,26.52
2017-07-20T12:11:27.102Z,26.52
2017-07-20T12:13:54.626Z,26.53
2017-07-20T12:16:22.176Z,26.52
2017-07-20T12:18:49.688Z,26.53
2017-07-20T12:21:17.222Z,26.52
2017-07-20T12:23:44.740Z,26.53
2017-07-20T12:26:12.288Z,26.53
2017-07-20T12:28:39.807Z,26.53
2017-07-20T12:31:07.353Z,26.53
2017-07-20T12:33:34.868Z,26.55
2017-07-20T12:36:02.413Z,26.54
2017-07-20T12:38:29.934Z,26.56
2017-07-20T12:40:57.483Z,26.56
2017-07-20T12:43:25.003Z,26.56
2017-07-20T12:45:52.549Z,26.57
2017-07-20T12:48:20.069Z,26.58
2017-07-20T12:50:47.625Z,26.58
2017-07-20T12:53:15.148Z,26.58
2017-07-20T12:55:42.700Z,26.57
2017-07-20T12:58:10.220Z,26.58
2017-07-20T13:00:37.743Z,26.58
2017-07-20T13:03:05.292Z,26.59
2017-07-20T13:05:32.808Z,26.60
2017-07-20T13:08:00.353Z,26.59
2017-07-20T13:10:27.870Z,26.60
2017-07-20T13:12:55.422Z,26.60
2017-07-20T13:15:22.941Z,26.60
2017-07-20T13:17:50.485Z,26.60
2017-07-20T13:20:18.005Z,26.61
2017-07-20T13:22:45.547Z,26.62
2017-07-20T13:25:13.066Z,26.62
2017-07-20T13:27:40.605Z,26.63
2017-07-20T13:30:08.114Z,26.63
2017-07-20T13:32:35.664Z,26.63
2017-07-20T13:35:03.174Z,26.64
2017-07-20T13:37:30.722Z,26.64
2017-07-20T13:39:58.247Z,26.65
2017-07-20T13:42:25.841Z,26.65
2017-07-20T13:44:53.357Z,26.66
2017-07-20T13:47:20.916Z,26.66
2017-07-20T13:49:48.424Z,26.67
2017-07-20T13:52:15.942Z,26.68
2017-07-20T13:54:43.495Z,26.69
2017-07-20T13:57:11.016Z,26.70
2017-07-20T13:59:38.568Z,26.70
2017-07-20T14:02:06.092Z,26.71
2017-07-20T14:04:33.642Z,26.71
2017-07-20T14:07:01.158Z,26.72
2017-07-20T14:09:28.709Z,26.73
2017-07-20T14:11:56.229Z,26.74
2017-07-20T14:14:23.783Z,26.74
2017-07-20T14:16:51.303Z,26.75
2017-07-20T14:19:18.847Z,26.75
2017-07-20T14:21:46.363Z,26.76
2017-07-20T14:24:13.914Z,26.78
2017-07-20T14:26:41.434Z,26.78
2017-07-20T14:29:08.991Z,26.78
2017-07-20T14:31:36.520Z,26.79
2017-07-20T14:34:04.081Z,26.80
2017-07-20T14:36:31.604Z,26.80
2017-07-20T14:38:59.124Z,26.81
2017-07-20T14:41:26.679Z,26.81
2017-07-20T14:43:54.197Z,26.82
2017-07-20T14:46:21.745Z,26.82
2017-07-20T14:48:49.262Z,26.82
2017-07-20T14:51:16.813Z,26.83
2017-07-20T14:53:44.327Z,26.83
2017-07-20T14:56:11.882Z,26.84
2017-07-20T14:58:39.396Z,26.84
2017-07-20T15:01:06.947Z,26.84
2017-07-20T15:03:34.461Z,26.85
2017-07-20T15:06:02.022Z,26.85
2017-07-20T15:08:29.535Z,26.85
2017-07-20T15:10:57.092Z,26.86
2017-07-20T15:13:24.608Z,26.86
2017-07-20T15:15:52.148Z,26.87
2017-07-20T15:18:19.661Z,26.87
2017-07-20T15:20:47.202Z,26.87
2017-07-20T15:23:14.725Z,26.87
2017-07-20T15:25:42.290Z,26.88
2017-07-20T15:28:09.804Z,26.88
2017-07-20T15:30:37.320Z,26.88
2017-07-20T15:33:04.871Z,26.89
2017-07-20T15:35:32.390Z,26.90
2017-07-20T15:37:59.939Z,26.90
2017-07-20T15:40:27.455Z,26.90
2017-07-20T15:42:54.997Z,26.90
2017-07-20T15:45:22.512Z,26.90
2017-07-20T15:47:50.065Z,26.89
2017-07-20T15:50:17.586Z,26.90
2017-07-20T15:52:45.147Z,26.89
2017-07-20T15:55:12.663Z,26.90
2017-07-20T15:57:40.210Z,26.90
2017-07-20T16:00:07.729Z,26.90
2017-07-20T16:02:35.276Z,26.91
2017-07-20T16:05:02.791Z,26.90
2017-07-20T16:07:30.337Z,26.90
2017-07-20T16:09:57.855Z,26.89
2017-07-20T16:12:25.420Z,26.89
2017-07-20T16:14:52.943Z,26.89
2017-07-20T16:17:20.468Z,26.89
2017-07-20T16:19:48.014Z,26.89
2017-07-20T16:22:15.541Z,26.90
2017-07-20T16:24:43.086Z,26.88
2017-07-20T16:27:10.601Z,26.89
2017-07-20T16:29:38.155Z,26.89
2017-07-20T16:32:05.674Z,26.89
2017-07-20T16:34:33.215Z,26.90
2017-07-20T16:37:00.729Z,26.89
2017-07-20T16:39:28.275Z,26.89
2017-07-20T16:41:55.792Z,26.88
2017-07-20T16:44:23.342Z,26.89
2017-07-20T16:46:50.853Z,26.89
2017-07-20T16:49:18.403Z,26.88
2017-07-20T16:51:45.918Z,26.88
2017-07-20T16:54:13.459Z,26.89
2017-07-20T16:56:40.973Z,26.89
2017-07-20T16:59:08.521Z,26.90
2017-07-20T17:01:36.039Z,26.90
2017-07-20T17:04:03.617Z,26.90
2017-07-20T17:06:31.124Z,26.91
2017-07-20T17:08:58.635Z,26.91
2017-07-20T17:11:26.178Z,26.91
2017-07-20T17:13:53.702Z,26.91
2017-07-20T17:16:21.251Z,26.92
2017-07-20T17:18:48.773Z,26.93
2017-07-20T17:21:16.319Z,26.90
2017-07-20T17:23:43.839Z,26.93
2017-07-20T17:26:11.376Z,26.93
2017-07-20T17:28:38.901Z,26.95
2017-07-20T17:31:06.452Z,26.96
2017-07-20T17:33:33.968Z,26.96
2017-07-20T17:36:01.516Z,26.96
2017-07-20T17:38:29.032Z,26.97
2017-07-20T17:40:56.597Z,26.98
2017-07-20T17:43:24.115Z,26.99
2017-07-20T17:45:51.666Z,26.99
2017-07-20T17:48:19.179Z,26.98
2017-07-20T17:50:46.747Z,26.99
2017-07-20T17:53:14.262Z,26.98
2017-07-20T17:55:41.784Z,26.97
2017-07-20T17:58:09.340Z,26.97
2017-07-20T18:00:36.873Z,26.97
2017-07-20T18:03:04.419Z,26.96
2017-07-20T18:05:31.929Z,26.97
2017-07-20T18:07:59.482Z,26.97
2017-07-20T18:10:26.998Z,26.98
2017-07-20T18:12:54.549Z,26.99
2017-07-20T18:15:22.071Z,26.98
2017-07-20T18:17:49.633Z,26.97
2017-07-20T18:20:17.154Z,26.98
2017-07-20T18:22:44.708Z,26.96
2017-07-20T18:25:12.228Z,26.98
2017-07-20T18:27:39.783Z,26.98
2017-07-20T18:30:07.298Z,26.97
2017-07-20T18:32:34.875Z,26.97
2017-07-20T18:35:02.400Z,26.95
2017-07-20T18:37:29.917Z,26.89
2017-07-20T18:39:57.465Z,26.84
2017-07-20T18:42:24.979Z,26.79
2017-07-20T18:44:52.521Z,26.73
2017-07-20T18:47:20.042Z,26.70
2017-07-20T18:49:47.590Z,26.67
2017-07-20T18:52:15.110Z,26.65
2017-07-20T18:54:42.656Z,26.63
2017-07-20T18:57:10.175Z,26.59
2017-07-20T18:59:37.725Z,26.54
2017-07-20T19:02:05.237Z,26.51
2017-07-20T19:04:32.780Z,26.76
2017-07-20T19:07:00.296Z,26.42
2017-07-20T19:09:27.850Z,25.40
2017-07-20T19:11:55.365Z,25.10
2017-07-20T19:14:22.920Z,25.35
2017-07-20T19:16:50.440Z,25.48
2017-07-20T19:19:18.008Z,25.54
2017-07-20T19:21:45.517Z,25.57
2017-07-20T19:24:13.038Z,25.61
2017-07-20T19:26:40.575Z,25.60
2017-07-20T19:29:08.093Z,25.58
2017-07-20T19:31:35.648Z,25.55
2017-07-20T19:34:03.169Z,25.50
2017-07-20T19:36:30.748Z,25.34
2017-07-20T19:38:58.293Z,25.19
2017-07-20T19:41:25.842Z,25.35
2017-07-20T19:43:53.358Z,25.40
2017-07-20T19:46:20.906Z,25.40
2017-07-20T19:48:48.416Z,25.42
2017-07-20T19:51:15.969Z,25.46
2017-07-20T19:53:43.486Z,25.45
2017-07-20T19:56:11.046Z,25.46
2017-07-20T19:58:38.556Z,25.43
2017-07-20T20:01:06.104Z,25.42
2017-07-20T20:03:33.617Z,25.37
2017-07-20T20:06:01.181Z,25.20
2017-07-20T20:08:28.694Z,25.24
2017-07-20T20:10:56.212Z,25.24
2017-07-20T20:13:23.763Z,25.29
2017-07-20T20:15:51.273Z,25.14
2017-07-20T20:18:18.828Z,24.89
2017-07-20T20:20:46.355Z,24.98
2017-07-20T20:23:13.911Z,25.09
2017-07-20T20:25:41.429Z,25.11
2017-07-20T20:28:08.975Z,25.10
2017-07-20T20:30:36.490Z,25.18
2017-07-20T20:33:04.282Z,25.16
2017-07-20T20:35:32.449Z,25.31
2017-07-20T20:38:00.055Z,25.40
2017-07-20T20:40:28.001Z,25.55
2017-07-20T20:42:56.843Z,25.53
2017-07-20T20:45:24.430Z,25.51
2017-07-20T20:47:51.982Z,25.60
2017-07-20T20:50:19.764Z,25.62
2017-07-20T20:52:47.347Z,25.58
2017-07-20T20:55:14.864Z,25.59
2017-07-20T20:57:42.386Z,25.52
2017-07-20T21:00:09.937Z,25.52
2017-07-20T21:02:37.446Z,25.54
2017-07-20T21:05:05.003Z,25.53
2017-07-20T21:07:32.799Z,25.52
2017-07-20T21:10:00.561Z,25.57
2017-07-20T21:12:28.445Z,25.61
2017-07-20T21:14:56.503Z,25.58
2017-07-20T21:17:24.163Z,25.54
2017-07-20T21:19:52.439Z,25.48
2017-07-20T21:22:20.181Z,25.47
2017-07-20T21:24:47.772Z,25.48
2017-07-20T21:27:15.498Z,25.51
2017-07-20T21:29:43.186Z,25.45
2017-07-20T21:32:11.028Z,25.45
2017-07-20T21:34:38.591Z,25.43
2017-07-20T21:37:06.114Z,25.51
2017-07-20T21:39:33.672Z,25.41
2017-07-20T21:42:01.198Z,25.32
2017-07-20T21:44:28.716Z,25.37
2017-07-20T21:46:56.268Z,25.36
2017-07-20T21:49:23.790Z,25.39
2017-07-20T21:51:51.335Z,25.34
2017-07-20T21:54:18.859Z,25.38
2017-07-20T21:56:46.414Z,25.33
2017-07-20T21:59:13.935Z,25.32
2017-07-20T22:01:41.488Z,25.28
2017-07-20T22:04:09.007Z,25.29
2017-07-20T22:06:36.553Z,25.20
2017-07-20T22:09:04.076Z,25.20
2017-07-20T22:11:31.631Z,25.25
2017-07-20T22:13:59.151Z,25.24
2017-07-20T22:16:26.702Z,25.17
2017-07-20T22:18:54.214Z,25.26
2017-07-20T22:21:21.798Z,25.16
2017-07-20T22:23:49.321Z,25.18
2017-07-20T22:26:16.911Z,25.16
2017-07-20T22:28:44.458Z,25.12
2017-07-20T22:31:12.011Z,25.11
2017-07-20T22:33:39.565Z,25.11
2017-07-20T22:36:07.081Z,25.12
2017-07-20T22:38:34.791Z,25.06
2017-07-20T22:41:02.311Z,25.06
2017-07-20T22:43:29.858Z,25.09
2017-07-20T22:45:57.371Z,25.08
2017-07-20T22:48:24.922Z,24.99
2017-07-20T22:50:52.437Z,25.01
2017-07-20T22:53:19.985Z,24.99
2017-07-20T22:55:47.507Z,24.98
2017-07-20T22:58:15.085Z,24.96
2017-07-20T23:00:42.599Z,24.95
2017-07-20T23:03:10.149Z,24.91
2017-07-20T23:05:37.662Z,24.93
2017-07-20T23:08:05.209Z,24.91
2017-07-20T23:10:32.783Z,24.91
2017-07-20T23:13:00.353Z,24.90
2017-07-20T23:15:27.889Z,24.92
2017-07-20T23:17:55.409Z,24.86
2017-07-20T23:20:22.963Z,24.90
2017-07-20T23:22:50.580Z,24.86
2017-07-20T23:25:18.124Z,24.80
2017-07-20T23:27:45.656Z,24.85
2017-07-20T23:30:13.215Z,24.84
2017-07-20T23:32:40.739Z,24.91
2017-07-20T23:35:08.388Z,24.92
2017-07-20T23:37:35.959Z,24.95
2017-07-20T23:40:03.503Z,24.97
2017-07-20T23:42:31.030Z,24.91
2017-07-20T23:44:58.599Z,24.92
2017-07-20T23:47:26.182Z,24.96
2017-07-20T23:49:53.698Z,24.93
2017-07-20T23:52:21.276Z,24.95
2017-07-20T23:54:48.792Z,24.99
2017-07-20T23:57:16.314Z,25.03
2017-07-20T23:59:43.925Z,25.04
